sensor_id;sensor_type;location;lat;lon;timestamp;temperature;humidity
19817;DHT22;68323;49.394;8.434;2023-04-09T00:02:22;11.80;85.60
19817;DHT22;68323;49.394;8.434;2023-04-09T00:04:48;11.80;85.80
19817;DHT22;68323;49.394;8.434;2023-04-09T00:07:14;11.80;86.60
19817;DHT22;68323;49.394;8.434;2023-04-09T00:09:39;11.80;86.70
19817;DHT22;68323;49.394;8.434;2023-04-09T00:12:05;11.80;86.90
19817;DHT22;68323;49.394;8.434;2023-04-09T00:14:31;11.70;87.20
19817;DHT22;68323;49.394;8.434;2023-04-09T00:16:56;11.70;87.40
19817;DHT22;68323;49.394;8.434;2023-04-09T00:19:22;11.70;87.50
19817;DHT22;68323;49.394;8.434;2023-04-09T00:21:47;11.70;87.60
19817;DHT22;68323;49.394;8.434;2023-04-09T00:24:13;11.60;87.70
19817;DHT22;68323;49.394;8.434;2023-04-09T00:26:39;11.60;87.70
19817;DHT22;68323;49.394;8.434;2023-04-09T00:29:04;11.60;87.70
19817;DHT22;68323;49.394;8.434;2023-04-09T00:31:30;11.60;87.80
19817;DHT22;68323;49.394;8.434;2023-04-09T00:33:55;11.60;87.90
19817;DHT22;68323;49.394;8.434;2023-04-09T00:36:21;11.50;88.30
19817;DHT22;68323;49.394;8.434;2023-04-09T00:38:47;11.50;88.50
19817;DHT22;68323;49.394;8.434;2023-04-09T00:41:14;11.50;88.60
19817;DHT22;68323;49.394;8.434;2023-04-09T00:43:39;11.50;88.90
19817;DHT22;68323;49.394;8.434;2023-04-09T00:46:05;11.50;88.90
19817;DHT22;68323;49.394;8.434;2023-04-09T00:48:30;11.50;89.00
19817;DHT22;68323;49.394;8.434;2023-04-09T00:50:56;11.50;89.10
19817;DHT22;68323;49.394;8.434;2023-04-09T00:53:22;11.40;89.20
19817;DHT22;68323;49.394;8.434;2023-04-09T00:55:47;11.50;89.40
19817;DHT22;68323;49.394;8.434;2023-04-09T00:58:13;11.40;89.50
19817;DHT22;68323;49.394;8.434;2023-04-09T01:00:39;11.40;90.10
19817;DHT22;68323;49.394;8.434;2023-04-09T01:03:05;11.40;89.70
19817;DHT22;68323;49.394;8.434;2023-04-09T01:11:19;11.30;90.00
19817;DHT22;68323;49.394;8.434;2023-04-09T01:16:22;11.30;90.20
19817;DHT22;68323;49.394;8.434;2023-04-09T01:18:57;11.20;90.20
19817;DHT22;68323;49.394;8.434;2023-04-09T01:21:26;11.30;90.40
19817;DHT22;68323;49.394;8.434;2023-04-09T01:27:04;11.30;90.30
19817;DHT22;68323;49.394;8.434;2023-04-09T01:29:36;11.20;90.30
19817;DHT22;68323;49.394;8.434;2023-04-09T01:32:04;11.20;90.40
19817;DHT22;68323;49.394;8.434;2023-04-09T01:34:31;11.20;90.40
19817;DHT22;68323;49.394;8.434;2023-04-09T01:36:59;11.20;90.60
19817;DHT22;68323;49.394;8.434;2023-04-09T01:39:27;11.10;90.60
19817;DHT22;68323;49.394;8.434;2023-04-09T01:41:53;11.10;90.60
19817;DHT22;68323;49.394;8.434;2023-04-09T01:44:20;11.10;90.60
19817;DHT22;68323;49.394;8.434;2023-04-09T01:46:48;11.10;90.60
19817;DHT22;68323;49.394;8.434;2023-04-09T01:49:15;11.10;90.70
19817;DHT22;68323;49.394;8.434;2023-04-09T01:51:41;11.10;90.70
19817;DHT22;68323;49.394;8.434;2023-04-09T01:54:07;11.10;90.80
19817;DHT22;68323;49.394;8.434;2023-04-09T01:56:43;11.00;90.80
19817;DHT22;68323;49.394;8.434;2023-04-09T01:59:09;11.00;90.90
19817;DHT22;68323;49.394;8.434;2023-04-09T02:01:40;11.00;91.00
19817;DHT22;68323;49.394;8.434;2023-04-09T02:04:22;11.00;91.00
19817;DHT22;68323;49.394;8.434;2023-04-09T02:09:43;10.90;91.30
19817;DHT22;68323;49.394;8.434;2023-04-09T02:12:12;10.80;91.30
19817;DHT22;68323;49.394;8.434;2023-04-09T02:14:39;10.80;91.60
19817;DHT22;68323;49.394;8.434;2023-04-09T02:17:05;10.80;91.50
19817;DHT22;68323;49.394;8.434;2023-04-09T02:19:38;10.80;91.50
19817;DHT22;68323;49.394;8.434;2023-04-09T02:22:04;10.80;91.80
19817;DHT22;68323;49.394;8.434;2023-04-09T02:24:30;10.80;92.60
19817;DHT22;68323;49.394;8.434;2023-04-09T02:26:55;10.80;93.10
19817;DHT22;68323;49.394;8.434;2023-04-09T02:29:22;10.80;93.20
19817;DHT22;68323;49.394;8.434;2023-04-09T02:31:47;10.80;93.20
19817;DHT22;68323;49.394;8.434;2023-04-09T02:34:14;10.70;93.50
19817;DHT22;68323;49.394;8.434;2023-04-09T02:36:39;10.70;93.70
19817;DHT22;68323;49.394;8.434;2023-04-09T02:39:05;10.60;93.80
19817;DHT22;68323;49.394;8.434;2023-04-09T02:41:30;10.60;93.80
19817;DHT22;68323;49.394;8.434;2023-04-09T02:43:56;10.60;93.90
19817;DHT22;68323;49.394;8.434;2023-04-09T02:46:21;10.60;94.10
19817;DHT22;68323;49.394;8.434;2023-04-09T02:48:47;10.60;94.30
19817;DHT22;68323;49.394;8.434;2023-04-09T02:51:12;10.60;94.60
19817;DHT22;68323;49.394;8.434;2023-04-09T02:53:38;10.60;94.70
19817;DHT22;68323;49.394;8.434;2023-04-09T02:56:05;10.60;94.80
19817;DHT22;68323;49.394;8.434;2023-04-09T02:58:30;10.60;94.80
19817;DHT22;68323;49.394;8.434;2023-04-09T03:00:56;10.60;94.70
19817;DHT22;68323;49.394;8.434;2023-04-09T03:03:22;10.60;94.80
19817;DHT22;68323;49.394;8.434;2023-04-09T03:05:47;10.60;95.00
19817;DHT22;68323;49.394;8.434;2023-04-09T03:08:12;10.60;95.40
19817;DHT22;68323;49.394;8.434;2023-04-09T03:10:38;10.50;95.60
19817;DHT22;68323;49.394;8.434;2023-04-09T03:13:03;10.50;96.90
19817;DHT22;68323;49.394;8.434;2023-04-09T03:15:29;10.50;97.70
19817;DHT22;68323;49.394;8.434;2023-04-09T03:17:55;10.50;98.30
19817;DHT22;68323;49.394;8.434;2023-04-09T03:20:20;10.50;98.90
19817;DHT22;68323;49.394;8.434;2023-04-09T03:22:46;10.40;98.90
19817;DHT22;68323;49.394;8.434;2023-04-09T03:25:11;10.50;98.70
19817;DHT22;68323;49.394;8.434;2023-04-09T03:27:37;10.40;98.20
19817;DHT22;68323;49.394;8.434;2023-04-09T03:30:03;10.40;97.60
19817;DHT22;68323;49.394;8.434;2023-04-09T03:32:28;10.40;97.20
19817;DHT22;68323;49.394;8.434;2023-04-09T03:34:54;10.40;96.90
19817;DHT22;68323;49.394;8.434;2023-04-09T03:37:19;10.40;96.50
19817;DHT22;68323;49.394;8.434;2023-04-09T03:39:45;10.40;96.40
19817;DHT22;68323;49.394;8.434;2023-04-09T03:42:10;10.40;96.30
19817;DHT22;68323;49.394;8.434;2023-04-09T03:44:36;10.30;97.50
19817;DHT22;68323;49.394;8.434;2023-04-09T03:47:01;10.30;99.10
19817;DHT22;68323;49.394;8.434;2023-04-09T03:49:27;10.30;99.90
19817;DHT22;68323;49.394;8.434;2023-04-09T03:51:53;10.30;99.90
19817;DHT22;68323;49.394;8.434;2023-04-09T03:54:18;10.30;99.90
19817;DHT22;68323;49.394;8.434;2023-04-09T03:56:44;10.20;99.90
19817;DHT22;68323;49.394;8.434;2023-04-09T03:59:09;10.20;99.90
19817;DHT22;68323;49.394;8.434;2023-04-09T04:01:35;10.20;99.90
19817;DHT22;68323;49.394;8.434;2023-04-09T04:04:01;10.20;99.90
19817;DHT22;68323;49.394;8.434;2023-04-09T04:06:26;10.20;99.90
19817;DHT22;68323;49.394;8.434;2023-04-09T04:08:52;10.20;99.90
19817;DHT22;68323;49.394;8.434;2023-04-09T04:11:17;10.20;99.90
19817;DHT22;68323;49.394;8.434;2023-04-09T04:13:43;10.10;99.90
19817;DHT22;68323;49.394;8.434;2023-04-09T04:16:09;10.10;99.90
19817;DHT22;68323;49.394;8.434;2023-04-09T04:18:35;10.10;99.90
19817;DHT22;68323;49.394;8.434;2023-04-09T04:21:01;10.10;99.90
19817;DHT22;68323;49.394;8.434;2023-04-09T04:23:26;10.10;99.90
19817;DHT22;68323;49.394;8.434;2023-04-09T04:25:52;10.00;99.90
19817;DHT22;68323;49.394;8.434;2023-04-09T04:28:18;10.00;99.90
19817;DHT22;68323;49.394;8.434;2023-04-09T04:30:43;10.00;99.90
19817;DHT22;68323;49.394;8.434;2023-04-09T04:33:09;10.00;99.90
19817;DHT22;68323;49.394;8.434;2023-04-09T04:35:35;10.00;99.90
19817;DHT22;68323;49.394;8.434;2023-04-09T04:38:00;10.00;99.90
19817;DHT22;68323;49.394;8.434;2023-04-09T04:40:26;10.00;99.90
19817;DHT22;68323;49.394;8.434;2023-04-09T04:42:51;10.00;99.90
19817;DHT22;68323;49.394;8.434;2023-04-09T04:45:17;10.00;99.90
19817;DHT22;68323;49.394;8.434;2023-04-09T04:47:43;9.90;99.90
19817;DHT22;68323;49.394;8.434;2023-04-09T04:50:08;9.90;99.90
19817;DHT22;68323;49.394;8.434;2023-04-09T04:52:35;10.00;99.90
19817;DHT22;68323;49.394;8.434;2023-04-09T04:55:01;10.00;99.90
19817;DHT22;68323;49.394;8.434;2023-04-09T04:57:26;9.90;99.90
19817;DHT22;68323;49.394;8.434;2023-04-09T04:59:52;9.90;99.90
19817;DHT22;68323;49.394;8.434;2023-04-09T05:02:18;9.90;99.90
19817;DHT22;68323;49.394;8.434;2023-04-09T05:04:44;9.90;99.90
19817;DHT22;68323;49.394;8.434;2023-04-09T05:07:09;9.90;99.90
19817;DHT22;68323;49.394;8.434;2023-04-09T05:09:35;9.90;99.90
19817;DHT22;68323;49.394;8.434;2023-04-09T05:12:00;9.90;99.90
19817;DHT22;68323;49.394;8.434;2023-04-09T05:14:26;9.90;99.90
19817;DHT22;68323;49.394;8.434;2023-04-09T05:16:52;9.90;99.90
19817;DHT22;68323;49.394;8.434;2023-04-09T05:19:17;9.90;99.90
19817;DHT22;68323;49.394;8.434;2023-04-09T05:21:43;9.90;99.90
19817;DHT22;68323;49.394;8.434;2023-04-09T05:24:08;9.90;99.90
19817;DHT22;68323;49.394;8.434;2023-04-09T05:26:34;9.90;99.90
19817;DHT22;68323;49.394;8.434;2023-04-09T05:29:00;10.00;99.90
19817;DHT22;68323;49.394;8.434;2023-04-09T05:31:25;10.00;99.90
19817;DHT22;68323;49.394;8.434;2023-04-09T05:33:51;10.10;99.90
19817;DHT22;68323;49.394;8.434;2023-04-09T05:36:18;10.10;99.90
19817;DHT22;68323;49.394;8.434;2023-04-09T05:38:45;10.30;99.90
19817;DHT22;68323;49.394;8.434;2023-04-09T05:41:11;10.40;99.90
19817;DHT22;68323;49.394;8.434;2023-04-09T05:43:37;10.50;99.90
19817;DHT22;68323;49.394;8.434;2023-04-09T05:46:03;10.60;99.90
19817;DHT22;68323;49.394;8.434;2023-04-09T05:48:28;10.70;99.90
19817;DHT22;68323;49.394;8.434;2023-04-09T05:50:54;10.70;99.90
19817;DHT22;68323;49.394;8.434;2023-04-09T05:53:20;10.80;99.90
19817;DHT22;68323;49.394;8.434;2023-04-09T05:55:46;10.80;99.90
19817;DHT22;68323;49.394;8.434;2023-04-09T05:58:13;10.80;99.90
19817;DHT22;68323;49.394;8.434;2023-04-09T06:00:40;10.90;99.90
19817;DHT22;68323;49.394;8.434;2023-04-09T06:03:07;10.90;99.90
19817;DHT22;68323;49.394;8.434;2023-04-09T06:05:33;10.90;99.90
19817;DHT22;68323;49.394;8.434;2023-04-09T06:07:58;11.00;99.80
19817;DHT22;68323;49.394;8.434;2023-04-09T06:10:24;11.00;98.80
19817;DHT22;68323;49.394;8.434;2023-04-09T06:12:49;11.00;98.70
19817;DHT22;68323;49.394;8.434;2023-04-09T06:15:15;11.20;98.80
19817;DHT22;68323;49.394;8.434;2023-04-09T06:17:41;11.40;98.60
19817;DHT22;68323;49.394;8.434;2023-04-09T06:20:06;11.60;98.00
19817;DHT22;68323;49.394;8.434;2023-04-09T06:22:32;11.80;97.60
19817;DHT22;68323;49.394;8.434;2023-04-09T06:24:58;12.00;97.30
19817;DHT22;68323;49.394;8.434;2023-04-09T06:27:23;12.10;96.70
19817;DHT22;68323;49.394;8.434;2023-04-09T06:29:49;12.30;96.30
19817;DHT22;68323;49.394;8.434;2023-04-09T06:32:15;12.40;95.90
19817;DHT22;68323;49.394;8.434;2023-04-09T06:34:40;12.50;95.10
19817;DHT22;68323;49.394;8.434;2023-04-09T06:37:06;12.60;94.60
19817;DHT22;68323;49.394;8.434;2023-04-09T06:39:31;12.70;94.20
19817;DHT22;68323;49.394;8.434;2023-04-09T06:41:57;12.80;94.10
19817;DHT22;68323;49.394;8.434;2023-04-09T06:44:23;12.90;93.70
19817;DHT22;68323;49.394;8.434;2023-04-09T06:46:49;13.00;93.60
19817;DHT22;68323;49.394;8.434;2023-04-09T06:49:15;13.10;93.30
19817;DHT22;68323;49.394;8.434;2023-04-09T06:51:40;13.20;93.20
19817;DHT22;68323;49.394;8.434;2023-04-09T06:54:06;13.40;93.10
19817;DHT22;68323;49.394;8.434;2023-04-09T06:56:32;13.70;92.40
19817;DHT22;68323;49.394;8.434;2023-04-09T06:58:58;14.30;90.60
19817;DHT22;68323;49.394;8.434;2023-04-09T07:01:24;14.80;90.00
19817;DHT22;68323;49.394;8.434;2023-04-09T07:03:50;15.40;88.40
19817;DHT22;68323;49.394;8.434;2023-04-09T07:06:15;16.30;85.10
19817;DHT22;68323;49.394;8.434;2023-04-09T07:08:41;17.30;81.20
19817;DHT22;68323;49.394;8.434;2023-04-09T07:11:06;17.80;78.10
19817;DHT22;68323;49.394;8.434;2023-04-09T07:13:32;18.10;76.90
19817;DHT22;68323;49.394;8.434;2023-04-09T07:15:57;18.40;73.90
19817;DHT22;68323;49.394;8.434;2023-04-09T07:18:23;18.50;71.20
19817;DHT22;68323;49.394;8.434;2023-04-09T07:20:48;18.80;70.10
19817;DHT22;68323;49.394;8.434;2023-04-09T07:23:14;19.10;69.20
19817;DHT22;68323;49.394;8.434;2023-04-09T07:25:39;19.30;68.40
19817;DHT22;68323;49.394;8.434;2023-04-09T07:28:05;19.40;67.00
19817;DHT22;68323;49.394;8.434;2023-04-09T07:30:30;19.40;66.00
19817;DHT22;68323;49.394;8.434;2023-04-09T07:32:57;19.30;65.30
19817;DHT22;68323;49.394;8.434;2023-04-09T07:35:22;19.40;65.70
19817;DHT22;68323;49.394;8.434;2023-04-09T07:37:48;19.90;65.10
19817;DHT22;68323;49.394;8.434;2023-04-09T07:40:13;20.30;63.60
19817;DHT22;68323;49.394;8.434;2023-04-09T07:42:39;20.60;62.70
19817;DHT22;68323;49.394;8.434;2023-04-09T07:45:05;20.80;62.20
19817;DHT22;68323;49.394;8.434;2023-04-09T07:47:31;20.90;61.20
19817;DHT22;68323;49.394;8.434;2023-04-09T07:49:57;21.20;59.70
19817;DHT22;68323;49.394;8.434;2023-04-09T07:52:23;21.90;59.30
19817;DHT22;68323;49.394;8.434;2023-04-09T07:54:48;22.80;57.40
19817;DHT22;68323;49.394;8.434;2023-04-09T07:57:14;23.60;56.50
19817;DHT22;68323;49.394;8.434;2023-04-09T07:59:39;24.10;54.20
19817;DHT22;68323;49.394;8.434;2023-04-09T08:02:06;24.50;52.00
19817;DHT22;68323;49.394;8.434;2023-04-09T08:04:31;25.00;50.60
19817;DHT22;68323;49.394;8.434;2023-04-09T08:06:57;25.00;49.30
19817;DHT22;68323;49.394;8.434;2023-04-09T08:09:22;24.80;49.30
19817;DHT22;68323;49.394;8.434;2023-04-09T08:11:48;24.60;49.80
19817;DHT22;68323;49.394;8.434;2023-04-09T08:14:15;24.50;49.80
19817;DHT22;68323;49.394;8.434;2023-04-09T08:16:45;24.80;49.40
19817;DHT22;68323;49.394;8.434;2023-04-09T08:19:11;25.60;48.70
19817;DHT22;68323;49.394;8.434;2023-04-09T08:21:38;26.60;47.40
19817;DHT22;68323;49.394;8.434;2023-04-09T08:24:05;27.60;45.80
19817;DHT22;68323;49.394;8.434;2023-04-09T08:26:31;28.40;43.30
19817;DHT22;68323;49.394;8.434;2023-04-09T08:28:57;28.60;42.40
19817;DHT22;68323;49.394;8.434;2023-04-09T08:31:23;28.40;41.90
19817;DHT22;68323;49.394;8.434;2023-04-09T08:33:49;28.30;42.20
19817;DHT22;68323;49.394;8.434;2023-04-09T08:36:15;28.40;42.30
19817;DHT22;68323;49.394;8.434;2023-04-09T08:38:40;28.80;41.20
19817;DHT22;68323;49.394;8.434;2023-04-09T08:41:07;29.10;40.70
19817;DHT22;68323;49.394;8.434;2023-04-09T08:43:32;29.20;40.30
19817;DHT22;68323;49.394;8.434;2023-04-09T08:45:59;29.10;40.10
19817;DHT22;68323;49.394;8.434;2023-04-09T08:48:27;29.00;40.50
19817;DHT22;68323;49.394;8.434;2023-04-09T08:50:52;28.90;40.30
19817;DHT22;68323;49.394;8.434;2023-04-09T08:53:20;29.20;40.50
19817;DHT22;68323;49.394;8.434;2023-04-09T08:55:47;29.80;40.00
19817;DHT22;68323;49.394;8.434;2023-04-09T08:58:12;30.60;38.80
19817;DHT22;68323;49.394;8.434;2023-04-09T09:00:38;30.90;38.10
19817;DHT22;68323;49.394;8.434;2023-04-09T09:03:09;30.90;37.60
19817;DHT22;68323;49.394;8.434;2023-04-09T09:08:10;28.20;39.00
19817;DHT22;68323;49.394;8.434;2023-04-09T09:10:45;26.60;41.30
19817;DHT22;68323;49.394;8.434;2023-04-09T09:13:23;25.20;43.30
19817;DHT22;68323;49.394;8.434;2023-04-09T09:15:53;23.90;45.50
19817;DHT22;68323;49.394;8.434;2023-04-09T09:18:36;22.90;47.40
19817;DHT22;68323;49.394;8.434;2023-04-09T09:21:12;22.20;48.70
19817;DHT22;68323;49.394;8.434;2023-04-09T09:23:38;21.40;49.40
19817;DHT22;68323;49.394;8.434;2023-04-09T09:26:19;20.90;50.50
19817;DHT22;68323;49.394;8.434;2023-04-09T09:28:46;20.50;51.90
19817;DHT22;68323;49.394;8.434;2023-04-09T09:31:13;20.20;52.50
19817;DHT22;68323;49.394;8.434;2023-04-09T09:33:40;20.00;53.00
19817;DHT22;68323;49.394;8.434;2023-04-09T09:36:06;20.10;52.50
19817;DHT22;68323;49.394;8.434;2023-04-09T09:38:40;20.00;52.40
19817;DHT22;68323;49.394;8.434;2023-04-09T09:41:18;19.90;52.40
19817;DHT22;68323;49.394;8.434;2023-04-09T09:43:44;20.20;53.10
19817;DHT22;68323;49.394;8.434;2023-04-09T09:46:10;20.80;51.70
19817;DHT22;68323;49.394;8.434;2023-04-09T09:48:37;21.40;51.00
19817;DHT22;68323;49.394;8.434;2023-04-09T09:51:10;22.00;49.20
19817;DHT22;68323;49.394;8.434;2023-04-09T09:53:38;22.20;48.50
19817;DHT22;68323;49.394;8.434;2023-04-09T09:56:04;22.00;48.00
19817;DHT22;68323;49.394;8.434;2023-04-09T09:58:44;21.70;48.50
19817;DHT22;68323;49.394;8.434;2023-04-09T10:01:13;22.20;48.00
19817;DHT22;68323;49.394;8.434;2023-04-09T10:03:42;23.30;47.30
19817;DHT22;68323;49.394;8.434;2023-04-09T10:06:10;24.50;45.10
19817;DHT22;68323;49.394;8.434;2023-04-09T10:08:37;24.70;43.00
19817;DHT22;68323;49.394;8.434;2023-04-09T10:11:05;24.00;43.40
19817;DHT22;68323;49.394;8.434;2023-04-09T10:13:34;23.00;44.60
19817;DHT22;68323;49.394;8.434;2023-04-09T10:16:01;22.00;46.20
19817;DHT22;68323;49.394;8.434;2023-04-09T10:18:28;20.90;47.50
19817;DHT22;68323;49.394;8.434;2023-04-09T10:20:58;19.90;49.50
19817;DHT22;68323;49.394;8.434;2023-04-09T10:23:37;19.30;50.50
19817;DHT22;68323;49.394;8.434;2023-04-09T10:26:04;18.90;51.00
19817;DHT22;68323;49.394;8.434;2023-04-09T10:28:30;18.60;52.00
19817;DHT22;68323;49.394;8.434;2023-04-09T10:30:57;18.40;52.60
19817;DHT22;68323;49.394;8.434;2023-04-09T10:33:24;18.20;52.90
19817;DHT22;68323;49.394;8.434;2023-04-09T10:35:54;18.00;53.40
19817;DHT22;68323;49.394;8.434;2023-04-09T10:38:33;17.90;54.00
19817;DHT22;68323;49.394;8.434;2023-04-09T10:41:09;17.80;54.40
19817;DHT22;68323;49.394;8.434;2023-04-09T10:43:37;17.90;54.30
19817;DHT22;68323;49.394;8.434;2023-04-09T10:49:09;18.30;54.00
19817;DHT22;68323;49.394;8.434;2023-04-09T10:51:37;18.50;53.70
19817;DHT22;68323;49.394;8.434;2023-04-09T10:54:06;18.70;53.60
19817;DHT22;68323;49.394;8.434;2023-04-09T10:59:40;19.30;52.70
19817;DHT22;68323;49.394;8.434;2023-04-09T11:02:09;19.50;51.20
19817;DHT22;68323;49.394;8.434;2023-04-09T11:07:44;20.20;47.40
19817;DHT22;68323;49.394;8.434;2023-04-09T11:10:10;20.10;47.10
19817;DHT22;68323;49.394;8.434;2023-04-09T11:12:36;19.90;44.10
19817;DHT22;68323;49.394;8.434;2023-04-09T11:15:02;19.60;43.20
19817;DHT22;68323;49.394;8.434;2023-04-09T11:17:28;19.20;43.70
19817;DHT22;68323;49.394;8.434;2023-04-09T11:19:54;18.90;43.90
19817;DHT22;68323;49.394;8.434;2023-04-09T11:22:20;18.70;44.90
19817;DHT22;68323;49.394;8.434;2023-04-09T11:24:45;18.60;45.90
19817;DHT22;68323;49.394;8.434;2023-04-09T11:27:12;18.50;45.80
19817;DHT22;68323;49.394;8.434;2023-04-09T11:29:37;18.50;46.40
19817;DHT22;68323;49.394;8.434;2023-04-09T11:32:03;18.50;47.00
19817;DHT22;68323;49.394;8.434;2023-04-09T11:34:30;18.40;47.60
19817;DHT22;68323;49.394;8.434;2023-04-09T11:36:55;18.30;47.90
19817;DHT22;68323;49.394;8.434;2023-04-09T11:39:23;18.20;47.60
19817;DHT22;68323;49.394;8.434;2023-04-09T11:41:49;18.10;47.60
19817;DHT22;68323;49.394;8.434;2023-04-09T11:44:14;18.00;47.90
19817;DHT22;68323;49.394;8.434;2023-04-09T11:46:40;18.00;47.80
19817;DHT22;68323;49.394;8.434;2023-04-09T11:49:06;18.00;47.70
19817;DHT22;68323;49.394;8.434;2023-04-09T11:51:32;18.00;47.60
19817;DHT22;68323;49.394;8.434;2023-04-09T11:54:04;18.00;48.00
19817;DHT22;68323;49.394;8.434;2023-04-09T11:56:30;18.00;48.60
19817;DHT22;68323;49.394;8.434;2023-04-09T11:58:57;18.10;48.50
19817;DHT22;68323;49.394;8.434;2023-04-09T12:01:23;18.10;48.10
19817;DHT22;68323;49.394;8.434;2023-04-09T12:03:52;18.10;48.20
19817;DHT22;68323;49.394;8.434;2023-04-09T12:06:20;17.90;48.50
19817;DHT22;68323;49.394;8.434;2023-04-09T12:08:51;17.80;48.80
19817;DHT22;68323;49.394;8.434;2023-04-09T12:11:17;17.60;49.40
19817;DHT22;68323;49.394;8.434;2023-04-09T12:13:42;17.50;49.90
19817;DHT22;68323;49.394;8.434;2023-04-09T12:16:11;17.50;50.00
19817;DHT22;68323;49.394;8.434;2023-04-09T12:18:37;17.40;50.00
19817;DHT22;68323;49.394;8.434;2023-04-09T12:21:03;17.40;49.90
19817;DHT22;68323;49.394;8.434;2023-04-09T12:23:29;17.30;50.20
19817;DHT22;68323;49.394;8.434;2023-04-09T12:25:55;17.50;50.10
19817;DHT22;68323;49.394;8.434;2023-04-09T12:28:24;17.60;49.60
19817;DHT22;68323;49.394;8.434;2023-04-09T12:30:49;17.80;49.70
19817;DHT22;68323;49.394;8.434;2023-04-09T12:33:15;18.10;49.50
19817;DHT22;68323;49.394;8.434;2023-04-09T12:35:41;18.30;48.90
19817;DHT22;68323;49.394;8.434;2023-04-09T12:38:07;18.50;48.20
19817;DHT22;68323;49.394;8.434;2023-04-09T12:40:33;18.70;48.10
19817;DHT22;68323;49.394;8.434;2023-04-09T12:42:59;18.80;48.10
19817;DHT22;68323;49.394;8.434;2023-04-09T12:45:25;18.80;46.50
19817;DHT22;68323;49.394;8.434;2023-04-09T12:47:52;18.70;46.70
19817;DHT22;68323;49.394;8.434;2023-04-09T12:50:17;18.70;46.50
19817;DHT22;68323;49.394;8.434;2023-04-09T12:52:44;18.70;46.40
19817;DHT22;68323;49.394;8.434;2023-04-09T12:55:11;18.60;46.40
19817;DHT22;68323;49.394;8.434;2023-04-09T12:57:38;18.70;46.70
19817;DHT22;68323;49.394;8.434;2023-04-09T13:00:05;18.70;47.20
19817;DHT22;68323;49.394;8.434;2023-04-09T13:02:31;18.90;47.10
19817;DHT22;68323;49.394;8.434;2023-04-09T13:04:56;19.00;46.30
19817;DHT22;68323;49.394;8.434;2023-04-09T13:07:22;19.00;45.50
19817;DHT22;68323;49.394;8.434;2023-04-09T13:09:47;19.00;46.00
19817;DHT22;68323;49.394;8.434;2023-04-09T13:12:17;18.90;46.60
19817;DHT22;68323;49.394;8.434;2023-04-09T13:14:44;18.90;46.50
19817;DHT22;68323;49.394;8.434;2023-04-09T13:17:10;18.80;46.90
19817;DHT22;68323;49.394;8.434;2023-04-09T13:19:36;18.90;46.50
19817;DHT22;68323;49.394;8.434;2023-04-09T13:22:02;18.80;46.40
19817;DHT22;68323;49.394;8.434;2023-04-09T13:24:27;18.80;46.70
19817;DHT22;68323;49.394;8.434;2023-04-09T13:26:53;18.90;47.20
19817;DHT22;68323;49.394;8.434;2023-04-09T13:29:18;19.00;47.40
19817;DHT22;68323;49.394;8.434;2023-04-09T13:31:44;19.20;47.20
19817;DHT22;68323;49.394;8.434;2023-04-09T13:34:10;19.40;46.10
19817;DHT22;68323;49.394;8.434;2023-04-09T13:36:35;19.40;46.00
19817;DHT22;68323;49.394;8.434;2023-04-09T13:39:01;19.30;45.90
19817;DHT22;68323;49.394;8.434;2023-04-09T13:41:32;19.20;45.70
19817;DHT22;68323;49.394;8.434;2023-04-09T13:43:58;19.20;45.90
19817;DHT22;68323;49.394;8.434;2023-04-09T13:46:23;19.20;45.90
19817;DHT22;68323;49.394;8.434;2023-04-09T13:48:49;19.20;44.80
19817;DHT22;68323;49.394;8.434;2023-04-09T13:51:15;19.10;45.40
19817;DHT22;68323;49.394;8.434;2023-04-09T13:53:40;19.20;45.80
19817;DHT22;68323;49.394;8.434;2023-04-09T13:56:06;19.10;44.90
19817;DHT22;68323;49.394;8.434;2023-04-09T13:58:32;19.10;45.30
19817;DHT22;68323;49.394;8.434;2023-04-09T14:00:57;19.30;45.50
19817;DHT22;68323;49.394;8.434;2023-04-09T14:03:23;19.50;45.30
19817;DHT22;68323;49.394;8.434;2023-04-09T14:05:48;19.50;45.30
19817;DHT22;68323;49.394;8.434;2023-04-09T14:08:15;19.40;44.70
19817;DHT22;68323;49.394;8.434;2023-04-09T14:10:40;19.40;45.70
19817;DHT22;68323;49.394;8.434;2023-04-09T14:13:06;19.50;45.80
19817;DHT22;68323;49.394;8.434;2023-04-09T14:15:34;19.60;44.70
19817;DHT22;68323;49.394;8.434;2023-04-09T14:18:01;19.60;44.60
19817;DHT22;68323;49.394;8.434;2023-04-09T14:20:26;19.50;44.70
19817;DHT22;68323;49.394;8.434;2023-04-09T14:22:52;19.40;44.90
19817;DHT22;68323;49.394;8.434;2023-04-09T14:25:18;19.20;45.40
19817;DHT22;68323;49.394;8.434;2023-04-09T14:27:43;18.90;44.90
19817;DHT22;68323;49.394;8.434;2023-04-09T14:30:09;18.60;45.70
19817;DHT22;68323;49.394;8.434;2023-04-09T14:32:35;18.30;46.50
19817;DHT22;68323;49.394;8.434;2023-04-09T14:35:00;18.10;46.70
19817;DHT22;68323;49.394;8.434;2023-04-09T14:37:26;18.10;47.20
19817;DHT22;68323;49.394;8.434;2023-04-09T14:39:52;18.10;46.80
19817;DHT22;68323;49.394;8.434;2023-04-09T14:42:17;18.20;47.20
19817;DHT22;68323;49.394;8.434;2023-04-09T14:44:43;18.40;46.90
19817;DHT22;68323;49.394;8.434;2023-04-09T14:47:09;18.50;46.60
19817;DHT22;68323;49.394;8.434;2023-04-09T14:49:34;18.60;46.10
19817;DHT22;68323;49.394;8.434;2023-04-09T14:52:00;18.60;46.10
19817;DHT22;68323;49.394;8.434;2023-04-09T14:54:25;18.70;45.60
19817;DHT22;68323;49.394;8.434;2023-04-09T14:56:51;18.80;46.00
19817;DHT22;68323;49.394;8.434;2023-04-09T14:59:16;18.90;45.20
19817;DHT22;68323;49.394;8.434;2023-04-09T15:01:42;19.00;45.20
19817;DHT22;68323;49.394;8.434;2023-04-09T15:04:07;19.10;45.60
19817;DHT22;68323;49.394;8.434;2023-04-09T15:06:33;19.20;45.30
19817;DHT22;68323;49.394;8.434;2023-04-09T15:08:59;19.20;45.40
19817;DHT22;68323;49.394;8.434;2023-04-09T15:11:24;19.30;45.00
19817;DHT22;68323;49.394;8.434;2023-04-09T15:13:50;19.10;45.20
19817;DHT22;68323;49.394;8.434;2023-04-09T15:16:20;19.10;45.10
19817;DHT22;68323;49.394;8.434;2023-04-09T15:18:46;19.00;44.90
19817;DHT22;68323;49.394;8.434;2023-04-09T15:21:13;18.90;45.10
19817;DHT22;68323;49.394;8.434;2023-04-09T15:23:39;18.80;45.10
19817;DHT22;68323;49.394;8.434;2023-04-09T15:26:04;18.80;45.60
19817;DHT22;68323;49.394;8.434;2023-04-09T15:28:30;18.80;45.70
19817;DHT22;68323;49.394;8.434;2023-04-09T15:30:55;18.70;45.60
19817;DHT22;68323;49.394;8.434;2023-04-09T15:33:21;18.70;45.70
19817;DHT22;68323;49.394;8.434;2023-04-09T15:35:46;18.80;46.60
19817;DHT22;68323;49.394;8.434;2023-04-09T15:38:12;18.80;45.30
19817;DHT22;68323;49.394;8.434;2023-04-09T15:40:39;18.80;45.30
19817;DHT22;68323;49.394;8.434;2023-04-09T15:43:05;18.70;45.40
19817;DHT22;68323;49.394;8.434;2023-04-09T15:45:30;18.70;45.60
19817;DHT22;68323;49.394;8.434;2023-04-09T15:47:56;18.70;45.90
19817;DHT22;68323;49.394;8.434;2023-04-09T15:50:21;18.70;46.00
19817;DHT22;68323;49.394;8.434;2023-04-09T15:52:47;18.70;46.40
19817;DHT22;68323;49.394;8.434;2023-04-09T15:55:13;18.70;46.40